sensor_id;sensor_type;location;lat;lon;timestamp;pressure;altitude;pressure_sealevel;temperature;humidity
80938;BME280;70395;51.382;7.074;2023-07-20T00:02:00;100211.78;;;18.24;64.53
80938;BME280;70395;51.382;7.074;2023-07-20T00:04:28;100216.19;;;18.25;64.67
80938;BME280;70395;51.382;7.074;2023-07-20T00:06:54;100217.88;;;18.26;65.27
80938;BME280;70395;51.382;7.074;2023-07-20T00:09:19;100207.84;;;18.27;64.67
80938;BME280;70395;51.382;7.074;2023-07-20T00:11:51;100211.41;;;18.27;65.24
80938;BME280;70395;51.382;7.074;2023-07-20T00:14:17;100213.25;;;18.27;65.17
80938;BME280;70395;51.382;7.074;2023-07-20T00:16:45;100214.09;;;18.27;65.05
80938;BME280;70395;51.382;7.074;2023-07-20T00:19:12;100210.56;;;18.27;64.61
80938;BME280;70395;51.382;7.074;2023-07-20T00:21:38;100205.97;;;18.27;64.93
80938;BME280;70395;51.382;7.074;2023-07-20T00:24:08;100207.84;;;18.27;65.44
80938;BME280;70395;51.382;7.074;2023-07-20T00:26:34;100201.38;;;18.28;65.17
80938;BME280;70395;51.382;7.074;2023-07-20T00:29:00;100195.31;;;18.26;64.98
80938;BME280;70395;51.382;7.074;2023-07-20T00:31:25;100193.84;;;18.23;65.33
80938;BME280;70395;51.382;7.074;2023-07-20T00:33:52;100203.22;;;18.20;64.91
80938;BME280;70395;51.382;7.074;2023-07-20T00:36:18;100202.72;;;18.17;65.28
80938;BME280;70395;51.382;7.074;2023-07-20T00:38:43;100200.63;;;18.12;64.73
80938;BME280;70395;51.382;7.074;2023-07-20T00:41:09;100197.66;;;18.07;64.94
80938;BME280;70395;51.382;7.074;2023-07-20T00:43:35;100198.91;;;18.04;65.03
80938;BME280;70395;51.382;7.074;2023-07-20T00:46:01;100194.91;;;18.00;65.68
80938;BME280;70395;51.382;7.074;2023-07-20T00:48:29;100193.63;;;17.96;65.33
80938;BME280;70395;51.382;7.074;2023-07-20T00:50:58;100188.16;;;17.89;65.25
80938;BME280;70395;51.382;7.074;2023-07-20T00:53:24;100193.34;;;17.84;65.84
80938;BME280;70395;51.382;7.074;2023-07-20T00:55:50;100187.88;;;17.77;65.62
80938;BME280;70395;51.382;7.074;2023-07-20T00:58:16;100196.78;;;17.71;65.38
80938;BME280;70395;51.382;7.074;2023-07-20T01:00:42;100188.22;;;17.67;65.95
80938;BME280;70395;51.382;7.074;2023-07-20T01:03:08;100198.38;;;17.65;65.58
80938;BME280;70395;51.382;7.074;2023-07-20T01:11:56;100198.59;;;17.63;65.92
80938;BME280;70395;51.382;7.074;2023-07-20T01:14:25;100193.22;;;17.70;65.86
80938;BME280;70395;51.382;7.074;2023-07-20T01:16:52;100191.81;;;17.74;65.82
80938;BME280;70395;51.382;7.074;2023-07-20T01:19:18;100189.53;;;17.78;65.90
80938;BME280;70395;51.382;7.074;2023-07-20T01:33:09;100185.84;;;17.86;65.92
80938;BME280;70395;51.382;7.074;2023-07-20T01:35:41;100190.22;;;17.87;66.27
80938;BME280;70395;51.382;7.074;2023-07-20T01:38:10;100185.25;;;17.90;65.48
80938;BME280;70395;51.382;7.074;2023-07-20T01:40:37;100182.97;;;17.94;65.85
80938;BME280;70395;51.382;7.074;2023-07-20T01:43:03;100189.88;;;17.97;65.24
80938;BME280;70395;51.382;7.074;2023-07-20T01:45:28;100194.91;;;18.00;65.71
80938;BME280;70395;51.382;7.074;2023-07-20T01:47:54;100190.97;;;18.03;65.72
80938;BME280;70395;51.382;7.074;2023-07-20T01:50:20;100183.28;;;18.06;66.13
80938;BME280;70395;51.382;7.074;2023-07-20T01:52:46;100192.91;;;18.09;65.92
80938;BME280;70395;51.382;7.074;2023-07-20T01:55:11;100183.72;;;18.10;65.73
80938;BME280;70395;51.382;7.074;2023-07-20T01:57:38;100187.91;;;18.12;65.74
80938;BME280;70395;51.382;7.074;2023-07-20T02:00:04;100187.50;;;18.16;65.96
80938;BME280;70395;51.382;7.074;2023-07-20T02:02:30;100192.16;;;18.22;65.73
80938;BME280;70395;51.382;7.074;2023-07-20T02:04:56;100189.06;;;18.25;65.69
80938;BME280;70395;51.382;7.074;2023-07-20T02:07:22;100185.94;;;18.28;65.68
80938;BME280;70395;51.382;7.074;2023-07-20T02:09:47;100177.38;;;18.31;65.63
80938;BME280;70395;51.382;7.074;2023-07-20T02:12:13;100179.91;;;18.33;65.57
80938;BME280;70395;51.382;7.074;2023-07-20T02:14:39;100178.69;;;18.36;65.72
80938;BME280;70395;51.382;7.074;2023-07-20T02:17:05;100183.06;;;18.37;66.04
80938;BME280;70395;51.382;7.074;2023-07-20T02:19:31;100180.16;;;18.38;65.80
80938;BME280;70395;51.382;7.074;2023-07-20T02:21:56;100176.38;;;18.39;65.57
80938;BME280;70395;51.382;7.074;2023-07-20T02:24:23;100187.88;;;18.41;65.61
80938;BME280;70395;51.382;7.074;2023-07-20T02:26:50;100186.22;;;18.40;66.29
80938;BME280;70395;51.382;7.074;2023-07-20T02:29:16;100180.38;;;18.43;66.30
80938;BME280;70395;51.382;7.074;2023-07-20T02:31:42;100193.94;;;18.43;66.22
80938;BME280;70395;51.382;7.074;2023-07-20T02:34:08;100196.66;;;18.43;66.36
80938;BME280;70395;51.382;7.074;2023-07-20T02:36:35;100185.38;;;18.40;65.88
80938;BME280;70395;51.382;7.074;2023-07-20T02:39:01;100183.69;;;18.39;66.04
80938;BME280;70395;51.382;7.074;2023-07-20T02:41:32;100186.81;;;18.36;66.11
80938;BME280;70395;51.382;7.074;2023-07-20T02:43:58;100180.75;;;18.33;66.77
80938;BME280;70395;51.382;7.074;2023-07-20T02:46:24;100191.38;;;18.28;66.61
80938;BME280;70395;51.382;7.074;2023-07-20T02:48:50;100189.06;;;18.25;66.36
80938;BME280;70395;51.382;7.074;2023-07-20T02:51:16;100191.13;;;18.23;66.63
80938;BME280;70395;51.382;7.074;2023-07-20T02:53:41;100194.03;;;18.21;66.40
80938;BME280;70395;51.382;7.074;2023-07-20T02:56:07;100193.56;;;18.18;66.50
80938;BME280;70395;51.382;7.074;2023-07-20T02:58:41;100184.94;;;18.07;66.89
80938;BME280;70395;51.382;7.074;2023-07-20T03:01:09;100190.56;;;18.06;66.52
80938;BME280;70395;51.382;7.074;2023-07-20T03:03:37;100192.19;;;18.00;67.11
80938;BME280;70395;51.382;7.074;2023-07-20T03:06:07;100191.94;;;17.95;67.02
80938;BME280;70395;51.382;7.074;2023-07-20T03:08:35;100197.97;;;17.90;66.88
80938;BME280;70395;51.382;7.074;2023-07-20T03:11:01;100201.28;;;17.85;67.07
80938;BME280;70395;51.382;7.074;2023-07-20T03:13:27;100201.88;;;17.81;67.23
80938;BME280;70395;51.382;7.074;2023-07-20T03:15:53;100205.16;;;17.76;67.25
80938;BME280;70395;51.382;7.074;2023-07-20T03:18:19;100209.75;;;17.75;67.45
80938;BME280;70395;51.382;7.074;2023-07-20T03:20:45;100202.47;;;17.76;67.32
80938;BME280;70395;51.382;7.074;2023-07-20T03:23:11;100208.72;;;17.76;67.50
80938;BME280;70395;51.382;7.074;2023-07-20T03:25:37;100209.38;;;17.78;67.53
80938;BME280;70395;51.382;7.074;2023-07-20T03:28:04;100209.78;;;17.82;67.55
80938;BME280;70395;51.382;7.074;2023-07-20T03:30:30;100203.13;;;17.85;67.22
80938;BME280;70395;51.382;7.074;2023-07-20T03:32:56;100202.97;;;17.86;67.29
80938;BME280;70395;51.382;7.074;2023-07-20T03:35:21;100207.16;;;17.89;66.79
80938;BME280;70395;51.382;7.074;2023-07-20T03:37:47;100218.81;;;17.89;66.92
80938;BME280;70395;51.382;7.074;2023-07-20T03:40:13;100212.75;;;17.87;67.02
80938;BME280;70395;51.382;7.074;2023-07-20T03:42:40;100214.00;;;17.85;67.29
80938;BME280;70395;51.382;7.074;2023-07-20T03:45:06;100214.41;;;17.82;66.83
80938;BME280;70395;51.382;7.074;2023-07-20T03:47:33;100220.63;;;17.82;67.09
80938;BME280;70395;51.382;7.074;2023-07-20T03:49:59;100210.47;;;17.84;67.09
80938;BME280;70395;51.382;7.074;2023-07-20T03:52:24;100209.19;;;17.87;67.23
80938;BME280;70395;51.382;7.074;2023-07-20T03:54:50;100216.94;;;17.90;66.85
80938;BME280;70395;51.382;7.074;2023-07-20T03:57:19;100211.16;;;17.93;67.29
80938;BME280;70395;51.382;7.074;2023-07-20T03:59:45;100217.22;;;17.95;66.87
80938;BME280;70395;51.382;7.074;2023-07-20T04:02:11;100217.22;;;17.95;66.97
80938;BME280;70395;51.382;7.074;2023-07-20T04:04:37;100214.50;;;17.95;67.54
80938;BME280;70395;51.382;7.074;2023-07-20T04:07:03;100219.28;;;17.93;67.34
80938;BME280;70395;51.382;7.074;2023-07-20T04:09:31;100221.53;;;17.89;67.34
80938;BME280;70395;51.382;7.074;2023-07-20T04:11:57;100226.53;;;17.86;67.41
80938;BME280;70395;51.382;7.074;2023-07-20T04:14:23;100234.66;;;17.86;67.32
80938;BME280;70395;51.382;7.074;2023-07-20T04:16:49;100228.84;;;17.89;67.39
80938;BME280;70395;51.382;7.074;2023-07-20T04:19:17;100235.56;;;17.93;67.17
80938;BME280;70395;51.382;7.074;2023-07-20T04:21:43;100229.34;;;17.99;67.56
80938;BME280;70395;51.382;7.074;2023-07-20T04:24:09;100230.44;;;18.05;66.79
80938;BME280;70395;51.382;7.074;2023-07-20T04:26:35;100226.28;;;18.09;67.30
80938;BME280;70395;51.382;7.074;2023-07-20T04:29:02;100230.28;;;18.14;67.17
80938;BME280;70395;51.382;7.074;2023-07-20T04:31:29;100233.44;;;18.17;66.83
80938;BME280;70395;51.382;7.074;2023-07-20T04:33:57;100238.50;;;18.20;66.85
80938;BME280;70395;51.382;7.074;2023-07-20T04:36:23;100238.91;;;18.24;67.01
80938;BME280;70395;51.382;7.074;2023-07-20T04:38:49;100237.91;;;18.25;66.58
80938;BME280;70395;51.382;7.074;2023-07-20T04:41:15;100250.03;;;18.29;66.95
80938;BME280;70395;51.382;7.074;2023-07-20T04:43:44;100249.00;;;18.30;67.10
80938;BME280;70395;51.382;7.074;2023-07-20T04:46:11;100249.44;;;18.34;67.34
80938;BME280;70395;51.382;7.074;2023-07-20T04:48:37;100250.06;;;18.36;66.55
80938;BME280;70395;51.382;7.074;2023-07-20T04:51:03;100254.25;;;18.39;67.29
80938;BME280;70395;51.382;7.074;2023-07-20T04:53:29;100245.50;;;18.43;66.78
80938;BME280;70395;51.382;7.074;2023-07-20T04:55:56;100255.78;;;18.48;66.73
80938;BME280;70395;51.382;7.074;2023-07-20T04:58:22;100256.22;;;18.52;66.95
80938;BME280;70395;51.382;7.074;2023-07-20T05:00:50;100248.53;;;18.55;66.72
80938;BME280;70395;51.382;7.074;2023-07-20T05:03:17;100254.84;;;18.63;66.42
80938;BME280;70395;51.382;7.074;2023-07-20T05:05:43;100256.94;;;18.67;66.78
80938;BME280;70395;51.382;7.074;2023-07-20T05:08:09;100257.38;;;18.71;66.27
80938;BME280;70395;51.382;7.074;2023-07-20T05:10:35;100259.69;;;18.74;66.54
80938;BME280;70395;51.382;7.074;2023-07-20T05:13:01;100260.56;;;18.82;66.47
80938;BME280;70395;51.382;7.074;2023-07-20T05:15:27;100259.94;;;18.86;66.17
80938;BME280;70395;51.382;7.074;2023-07-20T05:17:52;100258.50;;;18.90;66.40
80938;BME280;70395;51.382;7.074;2023-07-20T05:20:19;100263.97;;;18.97;66.18
80938;BME280;70395;51.382;7.074;2023-07-20T05:22:45;100255.22;;;19.02;65.81
80938;BME280;70395;51.382;7.074;2023-07-20T05:25:11;100263.59;;;19.07;65.76
80938;BME280;70395;51.382;7.074;2023-07-20T05:27:39;100262.97;;;19.12;66.31
80938;BME280;70395;51.382;7.074;2023-07-20T05:30:06;100273.06;;;19.18;65.57
80938;BME280;70395;51.382;7.074;2023-07-20T05:32:35;100262.41;;;19.23;65.62
80938;BME280;70395;51.382;7.074;2023-07-20T05:35:01;100266.38;;;19.28;65.90
80938;BME280;70395;51.382;7.074;2023-07-20T05:37:26;100262.03;;;19.33;65.84
80938;BME280;70395;51.382;7.074;2023-07-20T05:39:52;100271.44;;;19.38;65.63
80938;BME280;70395;51.382;7.074;2023-07-20T05:42:18;100260.16;;;19.41;66.00
80938;BME280;70395;51.382;7.074;2023-07-20T05:44:44;100279.41;;;19.46;66.07
80938;BME280;70395;51.382;7.074;2023-07-20T05:47:09;100272.28;;;19.52;65.83
80938;BME280;70395;51.382;7.074;2023-07-20T05:49:35;100269.38;;;19.60;65.61
80938;BME280;70395;51.382;7.074;2023-07-20T05:52:01;100267.28;;;19.69;64.82
80938;BME280;70395;51.382;7.074;2023-07-20T05:54:27;100277.13;;;19.77;65.00
80938;BME280;70395;51.382;7.074;2023-07-20T05:56:54;100266.47;;;19.82;64.58
80938;BME280;70395;51.382;7.074;2023-07-20T05:59:20;100270.25;;;19.88;64.43
80938;BME280;70395;51.382;7.074;2023-07-20T06:01:46;100274.00;;;19.94;63.97
80938;BME280;70395;51.382;7.074;2023-07-20T06:04:15;100274.22;;;19.99;64.14
80938;BME280;70395;51.382;7.074;2023-07-20T06:06:41;100287.81;;;20.06;63.90
80938;BME280;70395;51.382;7.074;2023-07-20T06:09:07;100289.09;;;20.10;63.49
80938;BME280;70395;51.382;7.074;2023-07-20T06:11:40;100293.09;;;20.14;63.10
80938;BME280;70395;51.382;7.074;2023-07-20T06:14:06;100291.19;;;20.21;63.53
80938;BME280;70395;51.382;7.074;2023-07-20T06:16:32;100299.34;;;20.28;62.81
80938;BME280;70395;51.382;7.074;2023-07-20T06:19:00;100306.25;;;20.31;62.87
80938;BME280;70395;51.382;7.074;2023-07-20T06:21:26;100307.53;;;20.35;62.77
80938;BME280;70395;51.382;7.074;2023-07-20T06:23:51;100305.44;;;20.37;61.95
80938;BME280;70395;51.382;7.074;2023-07-20T06:26:17;100312.13;;;20.41;62.30
80938;BME280;70395;51.382;7.074;2023-07-20T06:28:43;100315.28;;;20.45;61.77
80938;BME280;70395;51.382;7.074;2023-07-20T06:31:09;100312.53;;;20.52;62.10
80938;BME280;70395;51.382;7.074;2023-07-20T06:33:34;100319.84;;;20.58;61.88
80938;BME280;70395;51.382;7.074;2023-07-20T06:36:00;100315.44;;;20.64;61.49
80938;BME280;70395;51.382;7.074;2023-07-20T06:38:26;100321.28;;;20.67;61.59
80938;BME280;70395;51.382;7.074;2023-07-20T06:40:53;100314.56;;;20.70;60.94
80938;BME280;70395;51.382;7.074;2023-07-20T06:43:18;100314.78;;;20.75;61.19
80938;BME280;70395;51.382;7.074;2023-07-20T06:45:44;100312.88;;;20.82;60.72
80938;BME280;70395;51.382;7.074;2023-07-20T06:48:10;100308.19;;;20.97;61.12
80938;BME280;70395;51.382;7.074;2023-07-20T06:50:36;100308.38;;;21.15;60.73
80938;BME280;70395;51.382;7.074;2023-07-20T06:53:01;100307.88;;;21.32;59.61
80938;BME280;70395;51.382;7.074;2023-07-20T06:55:29;100311.38;;;21.46;59.28
80938;BME280;70395;51.382;7.074;2023-07-20T06:57:55;100316.16;;;21.51;58.39
80938;BME280;70395;51.382;7.074;2023-07-20T07:00:21;100309.66;;;21.52;58.91
80938;BME280;70395;51.382;7.074;2023-07-20T07:02:47;100313.06;;;21.47;58.99
80938;BME280;70395;51.382;7.074;2023-07-20T07:05:13;100314.97;;;21.40;58.44
80938;BME280;70395;51.382;7.074;2023-07-20T07:07:40;100320.66;;;21.32;58.83
80938;BME280;70395;51.382;7.074;2023-07-20T07:10:07;100319.25;;;21.22;58.78
80938;BME280;70395;51.382;7.074;2023-07-20T07:12:33;100326.63;;;21.15;59.54
80938;BME280;70395;51.382;7.074;2023-07-20T07:14:58;100329.81;;;21.05;59.24
80938;BME280;70395;51.382;7.074;2023-07-20T07:17:25;100331.91;;;20.96;59.86
80938;BME280;70395;51.382;7.074;2023-07-20T07:19:53;100332.75;;;20.90;59.47
80938;BME280;70395;51.382;7.074;2023-07-20T07:22:22;100332.56;;;20.85;59.66
80938;BME280;70395;51.382;7.074;2023-07-20T07:24:48;100339.50;;;20.80;59.74
80938;BME280;70395;51.382;7.074;2023-07-20T07:27:14;100334.47;;;20.77;59.94
80938;BME280;70395;51.382;7.074;2023-07-20T07:29:42;100328.19;;;20.77;60.31
80938;BME280;70395;51.382;7.074;2023-07-20T07:32:10;100333.81;;;20.82;60.77
80938;BME280;70395;51.382;7.074;2023-07-20T07:34:37;100326.50;;;20.82;60.69
80938;BME280;70395;51.382;7.074;2023-07-20T07:37:04;100331.75;;;20.77;60.51
80938;BME280;70395;51.382;7.074;2023-07-20T07:39:30;100331.53;;;20.72;60.29
80938;BME280;70395;51.382;7.074;2023-07-20T07:41:57;100331.56;;;20.65;60.05
80938;BME280;70395;51.382;7.074;2023-07-20T07:44:23;100337.03;;;20.58;60.51
80938;BME280;70395;51.382;7.074;2023-07-20T07:46:49;100334.50;;;20.50;60.64
80938;BME280;70395;51.382;7.074;2023-07-20T07:49:16;100345.22;;;20.38;59.82
80938;BME280;70395;51.382;7.074;2023-07-20T07:51:42;100341.88;;;20.29;60.70
80938;BME280;70395;51.382;7.074;2023-07-20T07:54:08;100347.31;;;20.22;60.59
80938;BME280;70395;51.382;7.074;2023-07-20T07:56:34;100347.97;;;20.18;60.67
80938;BME280;70395;51.382;7.074;2023-07-20T07:58:59;100341.25;;;20.20;61.08
80938;BME280;70395;51.382;7.074;2023-07-20T08:01:25;100345.44;;;20.30;60.79
80938;BME280;70395;51.382;7.074;2023-07-20T08:03:51;100351.50;;;20.45;60.15
80938;BME280;70395;51.382;7.074;2023-07-20T08:06:17;100362.78;;;20.69;59.70
80938;BME280;70395;51.382;7.074;2023-07-20T08:08:43;100360.44;;;21.00;59.21
80938;BME280;70395;51.382;7.074;2023-07-20T08:11:09;100361.75;;;21.37;58.81
80938;BME280;70395;51.382;7.074;2023-07-20T08:13:36;100353.81;;;21.75;58.17
80938;BME280;70395;51.382;7.074;2023-07-20T08:16:02;100365.53;;;22.14;57.88
80938;BME280;70395;51.382;7.074;2023-07-20T08:18:28;100363.34;;;22.49;56.07
80938;BME280;70395;51.382;7.074;2023-07-20T08:20:54;100370.41;;;22.82;56.65
80938;BME280;70395;51.382;7.074;2023-07-20T08:23:20;100369.97;;;23.04;55.67
80938;BME280;70395;51.382;7.074;2023-07-20T08:25:46;100364.13;;;23.20;55.51
80938;BME280;70395;51.382;7.074;2023-07-20T08:28:16;100373.44;;;23.31;53.65
80938;BME280;70395;51.382;7.074;2023-07-20T08:30:47;100368.25;;;23.41;52.59
80938;BME280;70395;51.382;7.074;2023-07-20T08:33:15;100370.63;;;23.56;52.70
80938;BME280;70395;51.382;7.074;2023-07-20T08:35:42;100367.31;;;23.66;51.80
80938;BME280;70395;51.382;7.074;2023-07-20T08:38:08;100370.34;;;23.77;52.07
80938;BME280;70395;51.382;7.074;2023-07-20T08:40:40;100380.94;;;23.85;52.49
80938;BME280;70395;51.382;7.074;2023-07-20T08:43:07;100370.03;;;23.97;51.15
80938;BME280;70395;51.382;7.074;2023-07-20T08:45:35;100370.28;;;24.07;50.43
80938;BME280;70395;51.382;7.074;2023-07-20T08:48:03;100363.78;;;24.21;50.19
80938;BME280;70395;51.382;7.074;2023-07-20T08:50:31;100377.28;;;24.34;49.90
80938;BME280;70395;51.382;7.074;2023-07-20T08:52:59;100375.63;;;24.45;48.87
80938;BME280;70395;51.382;7.074;2023-07-20T08:55:27;100376.69;;;24.56;48.23
80938;BME280;70395;51.382;7.074;2023-07-20T08:57:58;100380.72;;;24.66;49.26
80938;BME280;70395;51.382;7.074;2023-07-20T09:00:26;100370.38;;;24.80;48.12
80938;BME280;70395;51.382;7.074;2023-07-20T09:02:55;100373.31;;;24.90;47.37
80938;BME280;70395;51.382;7.074;2023-07-20T09:05:24;100375.25;;;25.02;46.90
80938;BME280;70395;51.382;7.074;2023-07-20T09:07:53;100377.34;;;25.24;47.00
80938;BME280;70395;51.382;7.074;2023-07-20T09:10:24;100371.41;;;25.56;47.38
80938;BME280;70395;51.382;7.074;2023-07-20T09:12:50;100381.41;;;26.09;46.98
80938;BME280;70395;51.382;7.074;2023-07-20T09:15:16;100373.16;;;26.26;44.34
80938;BME280;70395;51.382;7.074;2023-07-20T09:17:50;100378.47;;;26.16;44.42
80938;BME280;70395;51.382;7.074;2023-07-20T09:20:18;100376.06;;;26.02;44.90
80938;BME280;70395;51.382;7.074;2023-07-20T09:22:44;100377.38;;;25.82;45.39
80938;BME280;70395;51.382;7.074;2023-07-20T09:25:16;100376.53;;;25.52;45.75
80938;BME280;70395;51.382;7.074;2023-07-20T09:27:48;100376.63;;;25.28;45.77
80938;BME280;70395;51.382;7.074;2023-07-20T09:30:15;100380.13;;;25.12;46.59
80938;BME280;70395;51.382;7.074;2023-07-20T09:32:49;100381.19;;;24.86;46.02
80938;BME280;70395;51.382;7.074;2023-07-20T09:35:21;100379.34;;;25.28;44.80
80938;BME280;70395;51.382;7.074;2023-07-20T09:37:54;100374.00;;;26.27;43.48
80938;BME280;70395;51.382;7.074;2023-07-20T09:40:21;100375.72;;;27.52;41.20
80938;BME280;70395;51.382;7.074;2023-07-20T09:42:47;100382.25;;;28.73;38.83
80938;BME280;70395;51.382;7.074;2023-07-20T09:45:14;100368.31;;;29.86;36.71
80938;BME280;70395;51.382;7.074;2023-07-20T09:47:40;100375.22;;;30.41;35.62
80938;BME280;70395;51.382;7.074;2023-07-20T09:50:08;100371.38;;;30.16;35.69
80938;BME280;70395;51.382;7.074;2023-07-20T09:52:41;100369.38;;;29.59;36.23
80938;BME280;70395;51.382;7.074;2023-07-20T09:55:10;100366.47;;;29.11;36.92
80938;BME280;70395;51.382;7.074;2023-07-20T09:57:38;100365.75;;;29.53;37.04
80938;BME280;70395;51.382;7.074;2023-07-20T10:00:06;100366.66;;;30.48;34.73
80938;BME280;70395;51.382;7.074;2023-07-20T10:02:44;100360.50;;;31.43;33.42
80938;BME280;70395;51.382;7.074;2023-07-20T10:05:13;100363.25;;;32.24;31.51
80938;BME280;70395;51.382;7.074;2023-07-20T10:07:50;100362.16;;;32.99;31.48
80938;BME280;70395;51.382;7.074;2023-07-20T10:10:18;100359.78;;;33.75;30.02
80938;BME280;70395;51.382;7.074;2023-07-20T10:12:48;100366.91;;;34.48;28.61
80938;BME280;70395;51.382;7.074;2023-07-20T10:15:28;100369.81;;;34.99;27.87
80938;BME280;70395;51.382;7.074;2023-07-20T10:20:31;100362.13;;;34.01;28.38
80938;BME280;70395;51.382;7.074;2023-07-20T10:22:59;100363.16;;;33.33;28.49
80938;BME280;70395;51.382;7.074;2023-07-20T10:25:28;100368.59;;;32.45;29.05
80938;BME280;70395;51.382;7.074;2023-07-20T10:27:56;100368.72;;;31.59;30.22
80938;BME280;70395;51.382;7.074;2023-07-20T10:30:23;100361.38;;;31.33;30.58
80938;BME280;70395;51.382;7.074;2023-07-20T10:32:52;100365.06;;;32.04;30.16
80938;BME280;70395;51.382;7.074;2023-07-20T10:35:18;100364.28;;;32.88;28.65
80938;BME280;70395;51.382;7.074;2023-07-20T10:38:01;100366.41;;;33.79;28.17
80938;BME280;70395;51.382;7.074;2023-07-20T10:40:38;100365.03;;;34.71;27.26
80938;BME280;70395;51.382;7.074;2023-07-20T10:43:06;100351.31;;;35.55;25.67
80938;BME280;70395;51.382;7.074;2023-07-20T10:48:04;100353.19;;;36.87;24.88
80938;BME280;70395;51.382;7.074;2023-07-20T10:50:33;100344.78;;;37.46;23.43
80938;BME280;70395;51.382;7.074;2023-07-20T10:53:17;100345.41;;;37.87;23.01
80938;BME280;70395;51.382;7.074;2023-07-20T10:55:43;100347.22;;;37.65;22.54
80938;BME280;70395;51.382;7.074;2023-07-20T10:58:18;100345.75;;;36.65;22.51
80938;BME280;70395;51.382;7.074;2023-07-20T11:01:05;100338.09;;;35.23;24.12
80938;BME280;70395;51.382;7.074;2023-07-20T11:03:38;100331.47;;;34.20;25.01
80938;BME280;70395;51.382;7.074;2023-07-20T11:11:33;100331.00;;;33.46;25.68
80938;BME280;70395;51.382;7.074;2023-07-20T11:14:05;100332.41;;;33.04;26.47
80938;BME280;70395;51.382;7.074;2023-07-20T11:16:43;100330.25;;;33.59;25.83
80938;BME280;70395;51.382;7.074;2023-07-20T11:19:24;100331.34;;;34.45;25.91
80938;BME280;70395;51.382;7.074;2023-07-20T11:21:53;100327.63;;;35.43;24.29
80938;BME280;70395;51.382;7.074;2023-07-20T11:24:20;100328.38;;;36.36;23.07
80938;BME280;70395;51.382;7.074;2023-07-20T11:26:49;100328.94;;;36.97;21.93
80938;BME280;70395;51.382;7.074;2023-07-20T11:29:18;100312.34;;;37.36;20.73
80938;BME280;70395;51.382;7.074;2023-07-20T11:31:46;100314.47;;;37.74;21.74
80938;BME280;70395;51.382;7.074;2023-07-20T11:34:14;100314.06;;;38.12;21.13
80938;BME280;70395;51.382;7.074;2023-07-20T11:36:43;100317.44;;;38.44;20.32
80938;BME280;70395;51.382;7.074;2023-07-20T11:39:14;100299.94;;;38.47;20.45
80938;BME280;70395;51.382;7.074;2023-07-20T11:41:54;100308.22;;;38.65;20.83
80938;BME280;70395;51.382;7.074;2023-07-20T11:44:30;100305.97;;;39.10;19.67
80938;BME280;70395;51.382;7.074;2023-07-20T11:47:12;100300.53;;;39.35;19.14
80938;BME280;70395;51.382;7.074;2023-07-20T11:49:43;100302.97;;;38.94;19.28
80938;BME280;70395;51.382;7.074;2023-07-20T11:52:16;100301.97;;;38.29;19.65
80938;BME280;70395;51.382;7.074;2023-07-20T11:54:43;100296.34;;;37.99;19.71
80938;BME280;70395;51.382;7.074;2023-07-20T11:57:20;100297.38;;;37.05;20.25
80938;BME280;70395;51.382;7.074;2023-07-20T11:59:56;100289.09;;;36.23;20.65
80938;BME280;70395;51.382;7.074;2023-07-20T12:02:23;100295.78;;;36.45;20.78
80938;BME280;70395;51.382;7.074;2023-07-20T12:04:54;100293.22;;;36.67;20.38
80938;BME280;70395;51.382;7.074;2023-07-20T12:07:19;100290.25;;;36.81;19.99
80938;BME280;70395;51.382;7.074;2023-07-20T12:10:04;100286.25;;;36.05;20.25
80938;BME280;70395;51.382;7.074;2023-07-20T12:12:38;100285.91;;;35.15;21.20
80938;BME280;70395;51.382;7.074;2023-07-20T12:15:24;100286.16;;;34.20;22.71
80938;BME280;70395;51.382;7.074;2023-07-20T12:17:57;100286.44;;;33.70;23.84
80938;BME280;70395;51.382;7.074;2023-07-20T12:20:28;100283.47;;;34.14;22.90
80938;BME280;70395;51.382;7.074;2023-07-20T12:22:59;100278.75;;;34.86;22.01
80938;BME280;70395;51.382;7.074;2023-07-20T12:25:34;100281.06;;;35.67;21.56
80938;BME280;70395;51.382;7.074;2023-07-20T12:28:25;100285.31;;;36.69;20.91
80938;BME280;70395;51.382;7.074;2023-07-20T12:30:51;100274.22;;;37.49;19.38
80938;BME280;70395;51.382;7.074;2023-07-20T12:33:22;100275.66;;;38.21;18.97
80938;BME280;70395;51.382;7.074;2023-07-20T12:35:49;100276.84;;;38.81;17.93
80938;BME280;70395;51.382;7.074;2023-07-20T12:38:15;100281.38;;;39.37;17.81
80938;BME280;70395;51.382;7.074;2023-07-20T12:40:42;100269.97;;;39.89;17.17
80938;BME280;70395;51.382;7.074;2023-07-20T12:43:08;100282.28;;;40.35;16.56
80938;BME280;70395;51.382;7.074;2023-07-20T12:45:34;100273.84;;;40.72;16.23
80938;BME280;70395;51.382;7.074;2023-07-20T12:48:00;100261.41;;;40.61;15.64
80938;BME280;70395;51.382;7.074;2023-07-20T12:50:27;100271.75;;;40.44;16.21
80938;BME280;70395;51.382;7.074;2023-07-20T12:52:53;100267.63;;;40.54;16.42
80938;BME280;70395;51.382;7.074;2023-07-20T12:55:19;100259.69;;;39.93;16.64
80938;BME280;70395;51.382;7.074;2023-07-20T12:57:46;100262.38;;;38.79;16.91
80938;BME280;70395;51.382;7.074;2023-07-20T13:00:15;100264.34;;;37.51;18.92
80938;BME280;70395;51.382;7.074;2023-07-20T13:02:41;100268.13;;;36.35;19.41
80938;BME280;70395;51.382;7.074;2023-07-20T13:05:09;100269.44;;;35.27;20.52
80938;BME280;70395;51.382;7.074;2023-07-20T13:07:38;100271.53;;;34.28;21.15
80938;BME280;70395;51.382;7.074;2023-07-20T13:10:05;100262.78;;;33.40;22.11
80938;BME280;70395;51.382;7.074;2023-07-20T13:12:34;100263.38;;;32.54;22.57
80938;BME280;70395;51.382;7.074;2023-07-20T13:15:03;100263.31;;;31.75;24.24
80938;BME280;70395;51.382;7.074;2023-07-20T13:17:35;100250.25;;;31.00;24.58
80938;BME280;70395;51.382;7.074;2023-07-20T13:20:02;100257.44;;;30.40;25.17
80938;BME280;70395;51.382;7.074;2023-07-20T13:22:33;100254.50;;;29.84;26.20